TimeCEST,TemperatureF,Dew PointF,Humidity,Sea Level PressureIn,VisibilityMPH,Wind Direction,Wind SpeedMPH,Gust SpeedMPH,PrecipitationIn,Events,Conditions,WindDirDegrees,DateUTC
12:55 AM,62.6,62.6,100,29.98,-9999.0,North,5.8,-,N/A,,Clear,360,2012-09-30 22:55:00
1:55 AM,64.4,62.6,94,29.98,6.2,East,2.3,-,N/A,,Scattered Clouds,90,2012-09-30 23:55:00
2:00 AM,64,63,96,30.00,9,East,2.3,,,,Partly Cloudy,90,2012-10-01 00:00:00
3:55 AM,66.2,64.4,94,29.98,6.2,ENE,2.3,-,N/A,,Mostly Cloudy,60,2012-10-01 01:55:00
4:55 AM,66.2,66.2,100,30.01,6.2,WNW,3.5,-,N/A,,Scattered Clouds,300,2012-10-01 02:55:00
5:00 AM,67,66,94,30.01,9,WNW,3.5,,,,Mostly Cloudy,300,2012-10-01 03:00:00
5:55 AM,66.2,64.4,94,29.98,6.2,NNW,3.5,-,N/A,,Mostly Cloudy,340,2012-10-01 03:55:00
6:55 AM,64.4,62.6,94,30.01,6.2,East,2.3,-,N/A,,Mostly Cloudy,100,2012-10-01 04:55:00
7:55 AM,66.2,62.6,88,30.04,6.2,NNW,4.6,-,N/A,,Mostly Cloudy,330,2012-10-01 05:55:00
8:00 AM,66,63,87,30.04,6,NNW,4.6,,,,Scattered Clouds,330,2012-10-01 06:00:00
9:55 AM,69.8,66.2,88,30.04,6.2,NE,2.3,-,N/A,,Mostly Cloudy,50,2012-10-01 07:55:00
11:11 AM,71.6,68.0,88,30.04,5.0,East,5.8,-,N/A,Thunderstorm,Thunderstorm,90,2012-10-01 09:11:00
12:55 PM,71.6,69.8,94,30.04,6.2,ENE,11.5,-,N/A,,Mostly Cloudy,70,2012-10-01 10:55:00
1:55 PM,75.2,69.8,83,30.01,6.2,NNE,5.8,-,N/A,,Mostly Cloudy,20,2012-10-01 11:55:00
2:00 PM,75,70,81,30.03,6,NNE,5.8,,,,Partly Cloudy,20,2012-10-01 12:00:00
2:55 PM,78.8,71.6,78,30.01,6.2,North,6.9,-,N/A,,Mostly Cloudy,350,2012-10-01 12:55:00
3:55 PM,80.6,69.8,70,29.98,6.2,North,6.9,-,N/A,,Scattered Clouds,350,2012-10-01 13:55:00
4:55 PM,80.6,69.8,70,29.98,6.2,North,5.8,-,N/A,,Scattered Clouds,350,2012-10-01 14:55:00
5:00 PM,81,69,59,30.00,6,North,5.8,,,,Partly Cloudy,350,2012-10-01 15:00:00
5:55 PM,77.0,68.0,74,29.98,6.2,West,5.8,-,N/A,,Scattered Clouds,280,2012-10-01 15:55:00
6:55 PM,73.4,66.2,78,29.98,6.2,West,3.5,-,N/A,,Scattered Clouds,280,2012-10-01 16:55:00
7:55 PM,73.4,71.6,94,29.98,6.2,West,4.6,-,N/A,,Mostly Cloudy,280,2012-10-01 17:55:00
8:00 PM,73,71,91,29.98,6,West,4.6,,,,Mostly Cloudy,280,2012-10-01 18:00:00
8:55 PM,71.6,69.8,94,29.98,6.2,WSW,3.5,-,N/A,,Mostly Cloudy,240,2012-10-01 18:55:00
9:55 PM,69.8,68.0,94,29.98,6.2,SSW,6.9,-,N/A,,Mostly Cloudy,210,2012-10-01 19:55:00
10:55 PM,69.8,66.2,88,30.01,6.2,SW,5.8,-,N/A,,Mostly Cloudy,220,2012-10-01 20:55:00
11:00 PM,69,66,89,30.01,6,SW,5.8,,,,Mostly Cloudy,220,2012-10-01 21:00:00
11:55 PM,68.0,66.2,94,30.01,6.2,West,10.4,-,N/A,,Scattered Clouds,270,2012-10-01 21:55:00